sensor_id;sensor_type;location;lat;lon;timestamp;pressure;altitude;pressure_sealevel;temperature;humidity
20156;BME280;10238;49.556;10.956;2023-08-01T08:36:04;97041.19;;;17.39;100.00
20156;BME280;10238;49.556;10.956;2023-08-01T08:38:52;97035.69;;;17.34;100.00
20156;BME280;10238;49.556;10.956;2023-08-01T08:41:47;97029.13;;;17.30;100.00
20156;BME280;10238;49.556;10.956;2023-08-01T08:44:42;96996.31;;;17.28;100.00
20156;BME280;10238;49.556;10.956;2023-08-01T08:47:34;96950.97;;;17.20;100.00
20156;BME280;10238;49.556;10.956;2023-08-01T08:50:25;96948.63;;;17.12;100.00
20156;BME280;10238;49.556;10.956;2023-08-01T08:53:18;96923.72;;;17.05;100.00
20156;BME280;10238;49.556;10.956;2023-08-01T08:56:09;96912.28;;;16.98;100.00
20156;BME280;10238;49.556;10.956;2023-08-01T08:58:57;96922.69;;;16.94;100.00
20156;BME280;10238;49.556;10.956;2023-08-01T09:01:46;96957.81;;;16.93;100.00
20156;BME280;10238;49.556;10.956;2023-08-01T09:04:34;96991.19;;;16.97;100.00
20156;BME280;10238;49.556;10.956;2023-08-01T09:07:29;97012.09;;;17.06;100.00
20156;BME280;10238;49.556;10.956;2023-08-01T09:10:18;97008.28;;;17.14;100.00
20156;BME280;10238;49.556;10.956;2023-08-01T09:13:07;97012.28;;;17.23;100.00
20156;BME280;10238;49.556;10.956;2023-08-01T09:15:56;96997.50;;;17.32;100.00
20156;BME280;10238;49.556;10.956;2023-08-01T09:18:49;97005.59;;;17.44;100.00
20156;BME280;10238;49.556;10.956;2023-08-01T09:21:40;97000.25;;;17.55;100.00
20156;BME280;10238;49.556;10.956;2023-08-01T09:24:28;97004.00;;;17.66;100.00
20156;BME280;10238;49.556;10.956;2023-08-01T09:27:17;96999.56;;;17.71;100.00
20156;BME280;10238;49.556;10.956;2023-08-01T09:30:07;96999.69;;;17.76;100.00
20156;BME280;10238;49.556;10.956;2023-08-01T09:32:56;97001.94;;;17.79;100.00
20156;BME280;10238;49.556;10.956;2023-08-01T09:35:44;97003.69;;;17.85;100.00
20156;BME280;10238;49.556;10.956;2023-08-01T09:38:34;96996.56;;;17.91;100.00
20156;BME280;10238;49.556;10.956;2023-08-01T09:41:22;96989.19;;;17.98;100.00
20156;BME280;10238;49.556;10.956;2023-08-01T09:44:14;96993.63;;;18.04;100.00
20156;BME280;10238;49.556;10.956;2023-08-01T09:47:04;96987.66;;;18.13;100.00
20156;BME280;10238;49.556;10.956;2023-08-01T09:49:53;96985.06;;;18.18;100.00
20156;BME280;10238;49.556;10.956;2023-08-01T09:52:41;96973.25;;;18.19;100.00
20156;BME280;10238;49.556;10.956;2023-08-01T09:55:32;96975.59;;;18.27;100.00
20156;BME280;10238;49.556;10.956;2023-08-01T09:58:24;96979.59;;;18.36;100.00
20156;BME280;10238;49.556;10.956;2023-08-01T10:01:15;96979.56;;;18.48;100.00
20156;BME280;10238;49.556;10.956;2023-08-01T10:04:06;96965.25;;;18.59;100.00
20156;BME280;10238;49.556;10.956;2023-08-01T10:07:00;96956.00;;;18.66;100.00
20156;BME280;10238;49.556;10.956;2023-08-01T10:09:51;96962.22;;;18.83;100.00
20156;BME280;10238;49.556;10.956;2023-08-01T10:12:45;96964.41;;;18.98;100.00
20156;BME280;10238;49.556;10.956;2023-08-01T10:15:34;96975.16;;;18.98;100.00
20156;BME280;10238;49.556;10.956;2023-08-01T10:18:24;96971.09;;;18.95;100.00
20156;BME280;10238;49.556;10.956;2023-08-01T10:21:15;96967.56;;;18.95;100.00
20156;BME280;10238;49.556;10.956;2023-08-01T10:24:06;96978.09;;;18.96;100.00
20156;BME280;10238;49.556;10.956;2023-08-01T10:26:54;96963.78;;;19.07;100.00
20156;BME280;10238;49.556;10.956;2023-08-01T10:29:42;96964.44;;;19.14;100.00
20156;BME280;10238;49.556;10.956;2023-08-01T10:32:32;96968.03;;;19.20;100.00
20156;BME280;10238;49.556;10.956;2023-08-01T10:35:32;96956.06;;;19.27;100.00
20156;BME280;10238;49.556;10.956;2023-08-01T10:38:20;96968.97;;;19.25;100.00
20156;BME280;10238;49.556;10.956;2023-08-01T10:41:25;96959.59;;;19.28;100.00
20156;BME280;10238;49.556;10.956;2023-08-01T10:44:15;96946.06;;;19.40;100.00
20156;BME280;10238;49.556;10.956;2023-08-01T10:47:04;96946.69;;;19.47;100.00
20156;BME280;10238;49.556;10.956;2023-08-01T10:49:52;96932.00;;;19.54;100.00
20156;BME280;10238;49.556;10.956;2023-08-01T10:52:41;96942.94;;;19.64;100.00
20156;BME280;10238;49.556;10.956;2023-08-01T10:55:43;96947.84;;;19.84;100.00
20156;BME280;10238;49.556;10.956;2023-08-01T10:58:31;96933.81;;;20.03;100.00
20156;BME280;10238;49.556;10.956;2023-08-01T11:01:19;96945.59;;;20.14;100.00
20156;BME280;10238;49.556;10.956;2023-08-01T11:04:14;96944.69;;;20.25;100.00
20156;BME280;10238;49.556;10.956;2023-08-01T11:07:04;96938.28;;;20.31;100.00
20156;BME280;10238;49.556;10.956;2023-08-01T11:10:06;96940.38;;;20.45;100.00
20156;BME280;10238;49.556;10.956;2023-08-01T11:12:55;96934.09;;;20.61;100.00
20156;BME280;10238;49.556;10.956;2023-08-01T11:15:43;96936.16;;;20.76;100.00
20156;BME280;10238;49.556;10.956;2023-08-01T11:18:41;96941.78;;;20.96;100.00
20156;BME280;10238;49.556;10.956;2023-08-01T11:21:29;96937.84;;;21.08;100.00
20156;BME280;10238;49.556;10.956;2023-08-01T11:24:18;96941.38;;;21.09;100.00
20156;BME280;10238;49.556;10.956;2023-08-01T11:27:10;96947.38;;;21.16;100.00
20156;BME280;10238;49.556;10.956;2023-08-01T11:29:58;96938.22;;;21.17;100.00
20156;BME280;10238;49.556;10.956;2023-08-01T11:32:45;96934.88;;;21.05;100.00
20156;BME280;10238;49.556;10.956;2023-08-01T11:35:33;96935.25;;;20.92;100.00
20156;BME280;10238;49.556;10.956;2023-08-01T11:38:22;96957.28;;;20.84;100.00
20156;BME280;10238;49.556;10.956;2023-08-01T11:41:11;96983.56;;;20.67;100.00
20156;BME280;10238;49.556;10.956;2023-08-01T11:44:04;96971.00;;;20.56;100.00
20156;BME280;10238;49.556;10.956;2023-08-01T11:46:52;96971.81;;;20.35;100.00
20156;BME280;10238;49.556;10.956;2023-08-01T11:49:45;96998.31;;;20.05;100.00
20156;BME280;10238;49.556;10.956;2023-08-01T11:52:34;96996.63;;;19.99;100.00
20156;BME280;10238;49.556;10.956;2023-08-01T11:55:24;96989.59;;;19.98;100.00
20156;BME280;10238;49.556;10.956;2023-08-01T11:58:12;96994.34;;;19.91;100.00
20156;BME280;10238;49.556;10.956;2023-08-01T12:01:07;96986.41;;;19.84;100.00
20156;BME280;10238;49.556;10.956;2023-08-01T12:03:56;96993.50;;;19.90;100.00
20156;BME280;10238;49.556;10.956;2023-08-01T12:06:45;96990.47;;;20.03;100.00
20156;BME280;10238;49.556;10.956;2023-08-01T12:09:32;96990.63;;;20.30;100.00
20156;BME280;10238;49.556;10.956;2023-08-01T12:12:20;96982.72;;;20.66;100.00
20156;BME280;10238;49.556;10.956;2023-08-01T12:15:08;96968.81;;;20.96;100.00
20156;BME280;10238;49.556;10.956;2023-08-01T12:17:58;96967.03;;;21.33;100.00
20156;BME280;10238;49.556;10.956;2023-08-01T12:20:46;96954.41;;;21.44;100.00
20156;BME280;10238;49.556;10.956;2023-08-01T12:23:35;96956.13;;;21.55;100.00
20156;BME280;10238;49.556;10.956;2023-08-01T12:26:23;96944.25;;;21.87;100.00
20156;BME280;10238;49.556;10.956;2023-08-01T12:29:11;96941.78;;;22.22;100.00
20156;BME280;10238;49.556;10.956;2023-08-01T12:31:59;96942.56;;;22.69;100.00
20156;BME280;10238;49.556;10.956;2023-08-01T12:34:48;96936.97;;;23.01;100.00
20156;BME280;10238;49.556;10.956;2023-08-01T12:37:36;96933.22;;;23.17;100.00
20156;BME280;10238;49.556;10.956;2023-08-01T12:40:23;96937.88;;;23.42;100.00
20156;BME280;10238;49.556;10.956;2023-08-01T12:43:11;96925.13;;;23.72;100.00
20156;BME280;10238;49.556;10.956;2023-08-01T12:45:58;96916.72;;;23.79;100.00
20156;BME280;10238;49.556;10.956;2023-08-01T12:48:46;96922.66;;;23.91;100.00
20156;BME280;10238;49.556;10.956;2023-08-01T12:51:35;96915.06;;;23.93;100.00
20156;BME280;10238;49.556;10.956;2023-08-01T12:54:23;96917.25;;;23.81;100.00
20156;BME280;10238;49.556;10.956;2023-08-01T13:36:37;96901.34;;;24.48;100.00
20156;BME280;10238;49.556;10.956;2023-08-01T13:39:25;96916.06;;;24.37;100.00
20156;BME280;10238;49.556;10.956;2023-08-01T13:42:13;96933.53;;;24.06;100.00
20156;BME280;10238;49.556;10.956;2023-08-01T13:45:00;96953.06;;;23.83;100.00
20156;BME280;10238;49.556;10.956;2023-08-01T13:47:48;96961.22;;;23.68;100.00
20156;BME280;10238;49.556;10.956;2023-08-01T13:50:35;96971.22;;;23.37;100.00
20156;BME280;10238;49.556;10.956;2023-08-01T13:53:24;96982.34;;;23.31;100.00
20156;BME280;10238;49.556;10.956;2023-08-01T13:56:13;96989.84;;;23.08;100.00
20156;BME280;10238;49.556;10.956;2023-08-01T13:59:00;96990.88;;;22.92;100.00
20156;BME280;10238;49.556;10.956;2023-08-01T14:01:49;96982.16;;;22.80;100.00
20156;BME280;10238;49.556;10.956;2023-08-01T14:04:36;96985.97;;;22.79;100.00
20156;BME280;10238;49.556;10.956;2023-08-01T14:07:24;96991.31;;;22.69;100.00
20156;BME280;10238;49.556;10.956;2023-08-01T14:10:13;96984.28;;;22.68;100.00
20156;BME280;10238;49.556;10.956;2023-08-01T14:13:01;96985.50;;;23.02;100.00
20156;BME280;10238;49.556;10.956;2023-08-01T14:15:48;96981.66;;;22.93;100.00
20156;BME280;10238;49.556;10.956;2023-08-01T14:18:36;96985.75;;;23.06;100.00
20156;BME280;10238;49.556;10.956;2023-08-01T14:21:24;96984.38;;;22.93;100.00
20156;BME280;10238;49.556;10.956;2023-08-01T14:24:11;96986.75;;;22.80;100.00
20156;BME280;10238;49.556;10.956;2023-08-01T14:27:00;96991.94;;;22.91;100.00
20156;BME280;10238;49.556;10.956;2023-08-01T14:29:48;96976.53;;;23.02;100.00
20156;BME280;10238;49.556;10.956;2023-08-01T14:32:37;96977.91;;;23.04;100.00
20156;BME280;10238;49.556;10.956;2023-08-01T14:35:26;96989.97;;;23.34;100.00
20156;BME280;10238;49.556;10.956;2023-08-01T14:38:13;96987.28;;;23.64;100.00
20156;BME280;10238;49.556;10.956;2023-08-01T14:41:02;96984.03;;;24.02;100.00
20156;BME280;10238;49.556;10.956;2023-08-01T14:44:05;96964.13;;;24.46;100.00
20156;BME280;10238;49.556;10.956;2023-08-01T14:46:53;96966.53;;;24.68;100.00
20156;BME280;10238;49.556;10.956;2023-08-01T14:49:44;96966.50;;;24.73;100.00
20156;BME280;10238;49.556;10.956;2023-08-01T14:52:32;96969.72;;;24.80;100.00
20156;BME280;10238;49.556;10.956;2023-08-01T14:55:20;96968.41;;;24.77;100.00
20156;BME280;10238;49.556;10.956;2023-08-01T14:58:08;96969.31;;;24.43;100.00
20156;BME280;10238;49.556;10.956;2023-08-01T15:00:56;96973.84;;;24.62;100.00
20156;BME280;10238;49.556;10.956;2023-08-01T15:03:44;96968.78;;;25.09;100.00
20156;BME280;10238;49.556;10.956;2023-08-01T15:06:32;96966.50;;;25.32;100.00
20156;BME280;10238;49.556;10.956;2023-08-01T15:09:19;96971.50;;;25.58;100.00
20156;BME280;10238;49.556;10.956;2023-08-01T15:12:07;96963.63;;;25.90;100.00
20156;BME280;10238;49.556;10.956;2023-08-01T15:14:55;96961.03;;;25.75;100.00
20156;BME280;10238;49.556;10.956;2023-08-01T15:17:44;96959.50;;;25.98;100.00
20156;BME280;10238;49.556;10.956;2023-08-01T15:20:33;96965.91;;;26.40;100.00
20156;BME280;10238;49.556;10.956;2023-08-01T15:23:24;96963.78;;;26.84;100.00
20156;BME280;10238;49.556;10.956;2023-08-01T15:26:11;96958.66;;;27.01;97.59
20156;BME280;10238;49.556;10.956;2023-08-01T15:28:59;96967.00;;;26.86;95.57
20156;BME280;10238;49.556;10.956;2023-08-01T15:31:47;96972.56;;;26.81;100.00
20156;BME280;10238;49.556;10.956;2023-08-01T15:34:36;96977.06;;;27.09;100.00
20156;BME280;10238;49.556;10.956;2023-08-01T15:37:24;96977.16;;;27.23;99.37
20156;BME280;10238;49.556;10.956;2023-08-01T15:40:11;96975.56;;;27.22;97.70
20156;BME280;10238;49.556;10.956;2023-08-01T15:42:59;96979.97;;;27.42;99.20
20156;BME280;10238;49.556;10.956;2023-08-01T15:45:47;96975.44;;;27.51;93.03
20156;BME280;10238;49.556;10.956;2023-08-01T15:48:36;96978.94;;;27.14;94.38
20156;BME280;10238;49.556;10.956;2023-08-01T15:51:25;96976.63;;;27.26;91.24
20156;BME280;10238;49.556;10.956;2023-08-01T15:54:13;96985.28;;;27.52;90.19
20156;BME280;10238;49.556;10.956;2023-08-01T15:57:01;96981.94;;;27.73;78.78
20156;BME280;10238;49.556;10.956;2023-08-01T15:59:48;96984.22;;;27.48;78.54
20156;BME280;10238;49.556;10.956;2023-08-01T16:02:36;96987.69;;;27.11;79.52
20156;BME280;10238;49.556;10.956;2023-08-01T16:05:23;96983.09;;;26.88;80.13
20156;BME280;10238;49.556;10.956;2023-08-01T16:08:12;96981.59;;;26.48;81.08
20156;BME280;10238;49.556;10.956;2023-08-01T16:11:01;96986.81;;;26.21;78.88
20156;BME280;10238;49.556;10.956;2023-08-01T16:13:49;96985.81;;;26.07;83.79
20156;BME280;10238;49.556;10.956;2023-08-01T16:16:36;96984.00;;;26.26;82.60
20156;BME280;10238;49.556;10.956;2023-08-01T16:19:27;96988.03;;;26.05;82.82
20156;BME280;10238;49.556;10.956;2023-08-01T16:22:15;96997.25;;;26.09;79.00
20156;BME280;10238;49.556;10.956;2023-08-01T16:25:05;97000.13;;;26.23;80.31
20156;BME280;10238;49.556;10.956;2023-08-01T16:27:53;96998.72;;;26.30;73.43
20156;BME280;10238;49.556;10.956;2023-08-01T16:30:41;97002.94;;;26.41;70.90
20156;BME280;10238;49.556;10.956;2023-08-01T16:33:30;96999.84;;;26.24;68.01
20156;BME280;10238;49.556;10.956;2023-08-01T16:36:18;97003.63;;;26.28;71.37
20156;BME280;10238;49.556;10.956;2023-08-01T16:39:05;97010.50;;;26.49;71.04
20156;BME280;10238;49.556;10.956;2023-08-01T16:41:54;97011.00;;;26.51;67.86
20156;BME280;10238;49.556;10.956;2023-08-01T16:44:44;97006.78;;;26.40;68.84
20156;BME280;10238;49.556;10.956;2023-08-01T16:47:32;97003.41;;;26.48;68.46
20156;BME280;10238;49.556;10.956;2023-08-01T16:50:28;97003.66;;;26.23;68.46
20156;BME280;10238;49.556;10.956;2023-08-01T16:53:16;96998.63;;;26.35;69.02
20156;BME280;10238;49.556;10.956;2023-08-01T16:56:04;97011.25;;;26.26;67.11
20156;BME280;10238;49.556;10.956;2023-08-01T16:58:53;97003.88;;;26.32;70.65
20156;BME280;10238;49.556;10.956;2023-08-01T17:01:42;97009.84;;;26.62;70.06
20156;BME280;10238;49.556;10.956;2023-08-01T17:04:30;97004.28;;;26.72;69.99
20156;BME280;10238;49.556;10.956;2023-08-01T17:07:18;97011.19;;;26.65;67.72
20156;BME280;10238;49.556;10.956;2023-08-01T17:10:07;97016.47;;;26.51;71.22
20156;BME280;10238;49.556;10.956;2023-08-01T17:12:54;97026.38;;;26.42;71.12
20156;BME280;10238;49.556;10.956;2023-08-01T17:15:43;97025.03;;;26.11;69.50
20156;BME280;10238;49.556;10.956;2023-08-01T17:18:31;97026.25;;;25.90;71.26
20156;BME280;10238;49.556;10.956;2023-08-01T17:21:19;97026.44;;;25.65;72.11
20156;BME280;10238;49.556;10.956;2023-08-01T17:24:06;97034.00;;;25.24;73.04
20156;BME280;10238;49.556;10.956;2023-08-01T17:26:54;97030.09;;;24.87;74.52
20156;BME280;10238;49.556;10.956;2023-08-01T17:29:41;97037.47;;;24.56;78.36
20156;BME280;10238;49.556;10.956;2023-08-01T17:32:30;97042.13;;;24.31;80.40
20156;BME280;10238;49.556;10.956;2023-08-01T17:35:18;97103.19;;;23.93;83.23
20156;BME280;10238;49.556;10.956;2023-08-01T17:38:06;97102.66;;;23.91;85.32
20156;BME280;10238;49.556;10.956;2023-08-01T17:40:54;97127.72;;;23.37;89.61
20156;BME280;10238;49.556;10.956;2023-08-01T17:43:42;97137.25;;;22.92;95.26
20156;BME280;10238;49.556;10.956;2023-08-01T17:46:29;97143.22;;;22.53;100.00
20156;BME280;10238;49.556;10.956;2023-08-01T17:49:20;97149.00;;;22.08;100.00
20156;BME280;10238;49.556;10.956;2023-08-01T17:52:08;97165.34;;;21.70;100.00
20156;BME280;10238;49.556;10.956;2023-08-01T17:54:56;97165.53;;;21.37;100.00
20156;BME280;10238;49.556;10.956;2023-08-01T17:57:44;97178.63;;;21.07;100.00
20156;BME280;10238;49.556;10.956;2023-08-01T18:00:32;97179.88;;;20.83;100.00
20156;BME280;10238;49.556;10.956;2023-08-01T18:03:19;97175.72;;;20.59;100.00
20156;BME280;10238;49.556;10.956;2023-08-01T18:06:11;97179.22;;;20.43;100.00
20156;BME280;10238;49.556;10.956;2023-08-01T18:09:00;97185.53;;;20.32;100.00
20156;BME280;10238;49.556;10.956;2023-08-01T18:11:47;97191.25;;;20.19;100.00
20156;BME280;10238;49.556;10.956;2023-08-01T18:14:35;97197.47;;;20.08;100.00
20156;BME280;10238;49.556;10.956;2023-08-01T18:17:23;97217.06;;;19.87;100.00
20156;BME280;10238;49.556;10.956;2023-08-01T18:20:11;97221.56;;;19.70;100.00
20156;BME280;10238;49.556;10.956;2023-08-01T18:23:00;97220.72;;;19.41;100.00
20156;BME280;10238;49.556;10.956;2023-08-01T18:25:48;97235.50;;;19.39;100.00
20156;BME280;10238;49.556;10.956;2023-08-01T18:28:35;97249.78;;;19.27;100.00
20156;BME280;10238;49.556;10.956;2023-08-01T18:31:24;97249.78;;;19.16;100.00
20156;BME280;10238;49.556;10.956;2023-08-01T18:34:12;97254.09;;;19.05;100.00
20156;BME280;10238;49.556;10.956;2023-08-01T18:37:00;97272.97;;;18.94;100.00
20156;BME280;10238;49.556;10.956;2023-08-01T18:39:54;97273.19;;;18.81;100.00
20156;BME280;10238;49.556;10.956;2023-08-01T18:42:41;97283.03;;;18.75;100.00
20156;BME280;10238;49.556;10.956;2023-08-01T18:45:29;97287.78;;;18.50;100.00
20156;BME280;10238;49.556;10.956;2023-08-01T18:48:17;97298.56;;;18.32;100.00
20156;BME280;10238;49.556;10.956;2023-08-01T18:51:12;97308.59;;;18.25;100.00
20156;BME280;10238;49.556;10.956;2023-08-01T18:54:00;97304.06;;;18.08;100.00
20156;BME280;10238;49.556;10.956;2023-08-01T18:56:51;97316.50;;;17.91;100.00
20156;BME280;10238;49.556;10.956;2023-08-01T18:59:39;97300.22;;;17.86;100.00
20156;BME280;10238;49.556;10.956;2023-08-01T19:02:26;97302.41;;;17.77;100.00
20156;BME280;10238;49.556;10.956;2023-08-01T19:05:14;97302.72;;;17.69;100.00
20156;BME280;10238;49.556;10.956;2023-08-01T19:08:01;97303.63;;;17.63;100.00
20156;BME280;10238;49.556;10.956;2023-08-01T19:10:50;97296.56;;;17.62;100.00
20156;BME280;10238;49.556;10.956;2023-08-01T19:13:39;97304.81;;;17.67;100.00
20156;BME280;10238;49.556;10.956;2023-08-01T19:16:30;97313.31;;;17.64;100.00
20156;BME280;10238;49.556;10.956;2023-08-01T19:19:18;97311.53;;;17.58;100.00
20156;BME280;10238;49.556;10.956;2023-08-01T19:22:06;97313.69;;;17.50;100.00
20156;BME280;10238;49.556;10.956;2023-08-01T19:24:53;97316.25;;;17.38;100.00
20156;BME280;10238;49.556;10.956;2023-08-01T19:27:41;97320.13;;;17.42;100.00
20156;BME280;10238;49.556;10.956;2023-08-01T19:30:31;97335.50;;;17.35;100.00
20156;BME280;10238;49.556;10.956;2023-08-01T19:33:20;97346.97;;;17.24;100.00
20156;BME280;10238;49.556;10.956;2023-08-01T19:36:07;97348.44;;;17.20;100.00
20156;BME280;10238;49.556;10.956;2023-08-01T19:38:55;97344.34;;;17.17;100.00
20156;BME280;10238;49.556;10.956;2023-08-01T19:41:43;97352.47;;;17.11;100.00
20156;BME280;10238;49.556;10.956;2023-08-01T19:44:31;97352.69;;;17.09;100.00
20156;BME280;10238;49.556;10.956;2023-08-01T19:47:20;97347.16;;;17.04;100.00
20156;BME280;10238;49.556;10.956;2023-08-01T19:50:09;97345.56;;;16.97;100.00
20156;BME280;10238;49.556;10.956;2023-08-01T19:52:56;97352.66;;;16.91;100.00
20156;BME280;10238;49.556;10.956;2023-08-01T19:55:44;97358.03;;;16.85;100.00
20156;BME280;10238;49.556;10.956;2023-08-01T19:58:32;97353.53;;;16.79;100.00
20156;BME280;10238;49.556;10.956;2023-08-01T20:01:19;97356.50;;;16.71;100.00
20156;BME280;10238;49.556;10.956;2023-08-01T20:04:09;97368.13;;;16.65;100.00
20156;BME280;10238;49.556;10.956;2023-08-01T20:06:57;97382.38;;;16.59;100.00
20156;BME280;10238;49.556;10.956;2023-08-01T20:09:49;97384.66;;;16.55;100.00
20156;BME280;10238;49.556;10.956;2023-08-01T20:12:36;97398.72;;;16.51;100.00
20156;BME280;10238;49.556;10.956;2023-08-01T20:15:24;97396.31;;;16.43;100.00
20156;BME280;10238;49.556;10.956;2023-08-01T20:18:11;97395.06;;;16.39;100.00
20156;BME280;10238;49.556;10.956;2023-08-01T20:21:00;97399.19;;;16.35;100.00
20156;BME280;10238;49.556;10.956;2023-08-01T20:23:48;97403.56;;;16.29;100.00
20156;BME280;10238;49.556;10.956;2023-08-01T20:26:36;97411.44;;;16.24;100.00
20156;BME280;10238;49.556;10.956;2023-08-01T20:29:24;97410.59;;;16.24;100.00
20156;BME280;10238;49.556;10.956;2023-08-01T20:32:11;97412.47;;;16.23;100.00
20156;BME280;10238;49.556;10.956;2023-08-01T20:35:00;97417.00;;;16.23;100.00
20156;BME280;10238;49.556;10.956;2023-08-01T20:37:49;97413.91;;;16.26;100.00
20156;BME280;10238;49.556;10.956;2023-08-01T20:40:37;97422.34;;;16.29;100.00
20156;BME280;10238;49.556;10.956;2023-08-01T20:43:27;97423.16;;;16.30;100.00
20156;BME280;10238;49.556;10.956;2023-08-01T20:46:15;97419.44;;;16.31;100.00
20156;BME280;10238;49.556;10.956;2023-08-01T20:49:03;97417.81;;;16.30;100.00
20156;BME280;10238;49.556;10.956;2023-08-01T20:51:51;97420.50;;;16.30;100.00
20156;BME280;10238;49.556;10.956;2023-08-01T20:54:39;97418.59;;;16.30;100.00
20156;BME280;10238;49.556;10.956;2023-08-01T20:57:27;97421.94;;;16.26;100.00
20156;BME280;10238;49.556;10.956;2023-08-01T21:00:15;97425.22;;;16.28;100.00
20156;BME280;10238;49.556;10.956;2023-08-01T21:03:03;97430.00;;;16.26;100.00
20156;BME280;10238;49.556;10.956;2023-08-01T21:05:51;97420.72;;;16.22;100.00
20156;BME280;10238;49.556;10.956;2023-08-01T21:08:39;97426.50;;;16.19;100.00
20156;BME280;10238;49.556;10.956;2023-08-01T21:11:45;97419.06;;;16.21;100.00
20156;BME280;10238;49.556;10.956;2023-08-01T21:14:33;97412.88;;;16.20;100.00
20156;BME280;10238;49.556;10.956;2023-08-01T21:17:20;97416.81;;;16.18;100.00
20156;BME280;10238;49.556;10.956;2023-08-01T21:20:09;97421.97;;;16.19;100.00
20156;BME280;10238;49.556;10.956;2023-08-01T21:22:57;97413.09;;;16.19;100.00
20156;BME280;10238;49.556;10.956;2023-08-01T21:25:45;97419.50;;;16.18;100.00
20156;BME280;10238;49.556;10.956;2023-08-01T21:28:34;97404.25;;;16.18;100.00
20156;BME280;10238;49.556;10.956;2023-08-01T21:31:22;97411.66;;;16.16;100.00
20156;BME280;10238;49.556;10.956;2023-08-01T21:34:09;97405.47;;;16.16;100.00
20156;BME280;10238;49.556;10.956;2023-08-01T21:36:57;97404.25;;;16.12;100.00
20156;BME280;10238;49.556;10.956;2023-08-01T21:39:44;97417.44;;;16.13;100.00
20156;BME280;10238;49.556;10.956;2023-08-01T21:42:32;97414.97;;;16.12;100.00
20156;BME280;10238;49.556;10.956;2023-08-01T21:45:21;97414.97;;;16.12;100.00
20156;BME280;10238;49.556;10.956;2023-08-01T21:48:10;97418.28;;;16.14;100.00
20156;BME280;10238;49.556;10.956;2023-08-01T21:50:58;97423.44;;;16.09;100.00
20156;BME280;10238;49.556;10.956;2023-08-01T21:53:46;97421.19;;;16.06;100.00
20156;BME280;10238;49.556;10.956;2023-08-01T21:56:33;97423.28;;;16.04;100.00
20156;BME280;10238;49.556;10.956;2023-08-01T21:59:21;97425.97;;;16.04;100.00
20156;BME280;10238;49.556;10.956;2023-08-01T22:02:10;97424.91;;;16.05;100.00
20156;BME280;10238;49.556;10.956;2023-08-01T22:04:58;97425.97;;;16.04;100.00
20156;BME280;10238;49.556;10.956;2023-08-01T22:07:46;97421.44;;;15.98;100.00
20156;BME280;10238;49.556;10.956;2023-08-01T22:10:33;97421.00;;;16.01;100.00
20156;BME280;10238;49.556;10.956;2023-08-01T22:13:22;97423.28;;;15.97;100.00
20156;BME280;10238;49.556;10.956;2023-08-01T22:16:10;97423.91;;;15.99;100.00
20156;BME280;10238;49.556;10.956;2023-08-01T22:18:58;97423.91;;;15.99;100.00
20156;BME280;10238;49.556;10.956;2023-08-01T22:21:46;97429.69;;;15.96;100.00
20156;BME280;10238;49.556;10.956;2023-08-01T22:24:34;97431.53;;;15.96;100.00
20156;BME280;10238;49.556;10.956;2023-08-01T22:27:22;97441.41;;;15.95;100.00
20156;BME280;10238;49.556;10.956;2023-08-01T22:30:10;97435.63;;;15.98;100.00
20156;BME280;10238;49.556;10.956;2023-08-01T22:32:57;97437.53;;;15.98;100.00
20156;BME280;10238;49.556;10.956;2023-08-01T22:35:47;97436.91;;;15.96;100.00
20156;BME280;10238;49.556;10.956;2023-08-01T22:38:35;97422.88;;;15.94;100.00
20156;BME280;10238;49.556;10.956;2023-08-01T22:41:23;97427.00;;;15.96;100.00
20156;BME280;10238;49.556;10.956;2023-08-01T22:44:10;97421.66;;;15.96;100.00
20156;BME280;10238;49.556;10.956;2023-08-01T22:46:58;97429.47;;;15.98;100.00
20156;BME280;10238;49.556;10.956;2023-08-01T22:49:45;97424.50;;;16.01;100.00
20156;BME280;10238;49.556;10.956;2023-08-01T22:52:52;97425.75;;;15.99;100.00
20156;BME280;10238;49.556;10.956;2023-08-01T22:55:39;97421.66;;;15.96;100.00
20156;BME280;10238;49.556;10.956;2023-08-01T22:58:27;97422.47;;;15.90;100.00
20156;BME280;10238;49.556;10.956;2023-08-01T23:01:17;97427.84;;;15.84;100.00
20156;BME280;10238;49.556;10.956;2023-08-01T23:04:05;97428.69;;;15.78;100.00
20156;BME280;10238;49.556;10.956;2023-08-01T23:06:53;97416.16;;;15.72;100.00
20156;BME280;10238;49.556;10.956;2023-08-01T23:09:41;97418.00;;;15.65;100.00
20156;BME280;10238;49.556;10.956;2023-08-01T23:12:29;97425.44;;;15.56;100.00
20156;BME280;10238;49.556;10.956;2023-08-01T23:15:17;97423.00;;;15.48;100.00
20156;BME280;10238;49.556;10.956;2023-08-01T23:18:05;97431.84;;;15.42;100.00
20156;BME280;10238;49.556;10.956;2023-08-01T23:20:57;97424.19;;;15.33;100.00
20156;BME280;10238;49.556;10.956;2023-08-01T23:23:45;97431.00;;;15.29;100.00
20156;BME280;10238;49.556;10.956;2023-08-01T23:26:35;97431.63;;;15.24;100.00
20156;BME280;10238;49.556;10.956;2023-08-01T23:29:22;97433.25;;;15.18;100.00
20156;BME280;10238;49.556;10.956;2023-08-01T23:32:10;97441.91;;;15.14;100.00
20156;BME280;10238;49.556;10.956;2023-08-01T23:34:57;97439.63;;;15.04;100.00
20156;BME280;10238;49.556;10.956;2023-08-01T23:37:48;97439.84;;;14.96;100.00
20156;BME280;10238;49.556;10.956;2023-08-01T23:40:35;97434.25;;;14.91;100.00
20156;BME280;10238;49.556;10.956;2023-08-01T23:43:25;97445.19;;;14.83;100.00
20156;BME280;10238;49.556;10.956;2023-08-01T23:46:13;97436.72;;;14.80;100.00